»·PEaware :: N982ZC KSNA-L45

N982ZC :: KSNA-L45

FLIGHT INFORMATION

Flight Status: Arrived
Operator: Privately registered:
United States
More flights under this callsign
Pilot: Anonymous 15639 (15639)
Aircraft: Unknown
(P06T)
More flights by this aircraft type
Origin: KSNA John Wayne-Orange Co
United States
Destination: L45 Bakersfield Mun
United States
More flights between these airports :: More routes between these airports
Route: +ANAHM9 LHS LEBEC
File this flight plan on PilotEdge
Remarks:
Altitude:
(Current/Filed)
8,000ft
Speed:
(Current/Filed)
145kts
Departed: 10-Jan-18 12:39 PM
Arrived: 10-Jan-18 01:51 PM
Distance/Time
Traveled:
114nm/1:11
Distance/Time
To Go:
Arrived

Flight Plot

Page will automatically refresh every two minutes.

Flight plan parsing failed; only flown route is shown


Map Options




Map Legend


Flown Route
Filed Route
Departure Airport
Arrival Airport
Navaid (VOR, NDB)
Fix

Horizontal Profiles

Position Reports

Time Latitude Longitude Heading Altitude Ground
Speed
10-Jan-18 12:17 33.672228 -117.873696 206 60ft 0kts
10-Jan-18 12:18 33.672228 -117.873696 206 60ft 0kts
10-Jan-18 12:19 33.672228 -117.873696 206 60ft 0kts
10-Jan-18 12:20 33.672228 -117.873696 206 60ft 0kts
10-Jan-18 12:21 33.672228 -117.873696 206 60ft 0kts
10-Jan-18 12:22 33.672228 -117.873696 206 60ft 0kts
10-Jan-18 12:23 33.672228 -117.873696 206 60ft 0kts
10-Jan-18 12:24 33.672228 -117.873696 206 60ft 0kts
10-Jan-18 12:25 33.672227 -117.873696 206 60ft 0kts
10-Jan-18 12:26 33.672227 -117.873696 206 60ft 0kts
10-Jan-18 12:27 33.672227 -117.873696 206 60ft 0kts
10-Jan-18 12:28 33.672227 -117.873696 206 60ft 0kts
10-Jan-18 12:29 33.672227 -117.873696 206 60ft 0kts
10-Jan-18 12:30 33.672227 -117.873696 206 60ft 0kts
10-Jan-18 12:31 33.672227 -117.873696 206 60ft 0kts
10-Jan-18 12:32 33.672227 -117.873696 206 60ft 0kts
10-Jan-18 12:33 33.672227 -117.873696 206 60ft 0kts
10-Jan-18 12:34 33.672227 -117.873696 206 60ft 0kts
10-Jan-18 12:35 33.672227 -117.873696 206 60ft 0kts
10-Jan-18 12:36 33.672203 -117.873707 196 60ft 0kts
10-Jan-18 12:37 33.671849 -117.872761 34 60ft 4kts
10-Jan-18 12:38 33.673763 -117.871555 27 60ft 9kts
10-Jan-18 12:39 33.675971 -117.870136 27 60ft 7kts
10-Jan-18 12:40 33.678075 -117.868800 28 60ft 9kts
10-Jan-18 12:41 33.680472 -117.867476 27 60ft 9kts
10-Jan-18 12:42 33.681241 -117.866479 116 60ft 0kts
10-Jan-18 12:43 33.681241 -117.866479 116 60ft 0kts
10-Jan-18 12:44 33.680200 -117.865940 209 60ft 0kts
10-Jan-18 12:45 33.663304 -117.878861 234 651ft 93kts
10-Jan-18 12:46 33.650326 -117.898822 233 1747ft 91kts
10-Jan-18 12:47 33.635168 -117.922112 233 2886ft 93kts
10-Jan-18 12:48 33.620145 -117.947456 275 3891ft 93kts
10-Jan-18 12:49 33.641603 -117.948810 21 4898ft 100kts
10-Jan-18 12:50 33.666362 -117.931754 21 5762ft 107kts
10-Jan-18 12:51 33.695878 -117.911509 21 6026ft 142kts
10-Jan-18 12:52 33.731208 -117.888323 22 6020ft 143kts
10-Jan-18 12:53 33.766312 -117.864826 21 6024ft 146kts
10-Jan-18 12:54 33.803153 -117.841951 21 6026ft 152kts
10-Jan-18 12:55 33.840990 -117.818337 51 6021ft 158kts
10-Jan-18 12:56 33.860137 -117.780491 4 6020ft 138kts
10-Jan-18 12:57 33.897558 -117.782860 3 6021ft 131kts
10-Jan-18 12:58 33.933617 -117.783908 3 6021ft 128kts
10-Jan-18 12:59 33.968941 -117.784714 2 6025ft 126kts
10-Jan-18 13:00 34.003529 -117.787701 328 6026ft 132kts
10-Jan-18 13:01 34.020210 -117.829467 298 6032ft 139kts
10-Jan-18 13:02 34.032980 -117.869272 299 6646ft 117kts
10-Jan-18 13:03 34.043884 -117.904220 300 7409ft 107kts
10-Jan-18 13:04 34.054182 -117.937345 301 8034ft 113kts
10-Jan-18 13:05 34.066671 -117.977655 300 8036ft 135kts
10-Jan-18 13:06 34.079837 -118.020571 300 8035ft 139kts
10-Jan-18 13:07 34.093433 -118.064828 300 8034ft 143kts
10-Jan-18 13:08 34.107442 -118.110482 300 8037ft 147kts
10-Jan-18 13:09 34.121717 -118.155836 285 8030ft 136kts
10-Jan-18 13:10 34.133842 -118.196419 284 8025ft 124kts
10-Jan-18 13:11 34.145604 -118.235246 284 8023ft 122kts
10-Jan-18 13:12 34.161120 -118.270465 322 8052ft 133kts
10-Jan-18 13:13 34.194168 -118.291202 324 8046ft 135kts
10-Jan-18 13:14 34.227911 -118.311146 324 8044ft 135kts
10-Jan-18 13:15 34.261357 -118.331300 343 8054ft 131kts
10-Jan-18 13:16 34.293383 -118.349339 336 8035ft 122kts
10-Jan-18 13:17 34.323526 -118.366832 336 8041ft 119kts
10-Jan-18 13:18 34.353473 -118.384250 336 8046ft 119kts
10-Jan-18 13:19 34.383235 -118.401583 336 8051ft 119kts
10-Jan-18 13:20 34.413052 -118.418954 335 8054ft 119kts
10-Jan-18 13:21 34.442715 -118.436251 335 8050ft 118kts
10-Jan-18 13:22 34.472109 -118.453413 335 8048ft 116kts
10-Jan-18 13:23 34.501192 -118.470415 334 8047ft 116kts
10-Jan-18 13:24 34.530195 -118.487380 334 8046ft 115kts
10-Jan-18 13:25 34.559197 -118.504359 334 8046ft 115kts
10-Jan-18 13:26 34.588081 -118.521260 334 8044ft 115kts
10-Jan-18 13:27 34.616769 -118.538059 333 8041ft 114kts
10-Jan-18 13:28 34.645208 -118.554727 332 8037ft 112kts
10-Jan-18 13:29 34.673270 -118.571193 331 8029ft 111kts
10-Jan-18 13:30 34.699436 -118.590466 323 8016ft 109kts
10-Jan-18 13:31 34.724645 -118.610849 323 7997ft 108kts
10-Jan-18 13:32 34.749604 -118.631188 324 7974ft 108kts
10-Jan-18 13:33 34.774477 -118.651449 323 7956ft 108kts
10-Jan-18 13:34 34.797333 -118.670070 324 8487ft 90kts
10-Jan-18 13:35 34.817722 -118.686724 325 8936ft 97kts
10-Jan-18 13:36 34.842053 -118.706558 325 8919ft 108kts
10-Jan-18 13:37 34.867209 -118.727108 326 8909ft 109kts
10-Jan-18 13:38 34.892370 -118.747642 326 8906ft 109kts
10-Jan-18 13:39 34.917744 -118.768396 326 8906ft 110kts
10-Jan-18 13:40 34.943407 -118.789420 326 8903ft 109kts
10-Jan-18 13:41 34.968898 -118.810293 325 8791ft 108kts
10-Jan-18 13:42 34.995034 -118.831721 325 7911ft 125kts
10-Jan-18 13:43 35.024724 -118.856089 324 6475ft 127kts
10-Jan-18 13:44 35.049442 -118.881546 318 4908ft 107kts
10-Jan-18 13:45 35.070662 -118.904806 317 3473ft 97kts
10-Jan-18 13:46 35.091783 -118.928003 318 2940ft 112kts
10-Jan-18 13:47 35.111472 -118.949664 318 2951ft 86kts
10-Jan-18 13:48 35.129681 -118.969709 318 2973ft 92kts
10-Jan-18 13:49 35.156040 -118.976240 350 2560ft 98kts
10-Jan-18 13:50 35.182316 -118.979507 351 2089ft 90kts
10-Jan-18 13:51 35.207390 -118.982404 351 2000ft 90kts
10-Jan-18 13:52 35.231917 -118.985254 351 1999ft 87kts
10-Jan-18 13:53 35.252999 -118.987686 351 1658ft 72kts
10-Jan-18 13:54 35.273336 -118.990043 351 1280ft 74kts
10-Jan-18 13:55 35.293812 -118.992417 351 893ft 73kts
10-Jan-18 13:56 35.313985 -118.994726 351 516ft 72kts
10-Jan-18 13:57 35.327383 -118.996357 328 379ft 6kts
10-Jan-18 13:58 35.326930 -118.997085 174 379ft 7kts
10-Jan-18 13:59 35.324346 -118.997162 263 379ft 6kts
10-Jan-18 14:00 35.324149 -118.997580 182 379ft 0kts
10-Jan-18 14:01 35.324149 -118.997580 182 379ft 0kts

Navigation Log

Ident Type
Flight plan parsing failed, navigation log unavailable